Terminal Aerodrome Forecast
Issued by NWS

Home | Current Version | Previous Version | Text Only | Print | Product List | Glossary On
Versions: 1 2 3 4 5 6 7 8 9 10 11 12 13 14 15 16 17 18 19 20 21 22 23 24 25 26 27 28 29 30 31 32
822
FTUS41 KOKX 252040 AAA
TAFHPN
TAF AMD
KHPN 252040Z 2521/2618 07007KT 2SM BR OVC003
     FM252200 04005KT 1SM BR OVC005
     FM260000 VRB02KT 1SM BR OVC009
     FM260200 00000KT 1SM BR OVC050
     FM260900 VRB03KT 3SM BR OVC120
     FM261300 31005KT P6SM SCT250
      AMD NOT SKED=

USA.gov is the U.S. government's official web portal to all federal, state and local government web resources and services.